Time;durP1;ratioP1;P1;durP2;ratioP2;P2;SDS_P1;SDS_P2;PMS_P1;PMS_P2;Temp;Humidity;BMP_temperature;BMP_pressure;BME280_temperature;BME280_humidity;BME280_pressure;Samples;Min_cycle;Max_cycle;Signal;HPM_P1;HPM_P2
2023/07/24 00:01:15;;;;;;;9.82;6.40;;;19.20;99.90;;;;;;5032930;28;20210;-62
2023/07/24 00:03:41;;;;;;;8.27;6.10;;;19.20;99.90;;;;;;5033530;28;20210;-62
2023/07/24 00:06:08;;;;;;;8.63;5.85;;;19.30;99.90;;;;;;5032899;28;20226;-62
2023/07/24 00:08:35;;;;;;;10.75;5.72;;;19.30;99.90;;;;;;5033217;28;20211;-62
2023/07/24 00:11:02;;;;;;;15.70;6.88;;;19.40;99.90;;;;;;5033005;28;20628;-62
2023/07/24 00:13:30;;;;;;;7.88;6.35;;;19.30;99.90;;;;;;5033149;28;20238;-61
2023/07/24 00:15:58;;;;;;;9.02;6.85;;;19.00;99.90;;;;;;5033627;28;20258;-61
2023/07/24 00:18:25;;;;;;;8.60;6.50;;;18.70;99.90;;;;;;5033146;28;20213;-62
2023/07/24 00:20:51;;;;;;;11.68;6.97;;;18.60;99.90;;;;;;5032933;28;20582;-62
2023/07/24 00:23:18;;;;;;;12.32;6.85;;;18.50;99.90;;;;;;5033116;28;20206;-61
2023/07/24 00:25:45;;;;;;;8.88;7.03;;;18.50;99.90;;;;;;5059547;22;20250;-58
2023/07/24 00:28:11;;;;;;;8.35;6.47;;;18.50;99.90;;;;;;5052494;28;20202;-59
2023/07/24 00:30:40;;;;;;;9.75;6.43;;;18.60;99.90;;;;;;5052407;28;20283;-56
2023/07/24 00:33:06;;;;;;;10.52;6.97;;;18.60;99.90;;;;;;5052655;28;20206;-57
2023/07/24 00:35:33;;;;;;;9.27;6.45;;;18.50;99.90;;;;;;5052373;28;20744;-56
2023/07/24 00:38:00;;;;;;;8.93;7.10;;;18.50;99.90;;;;;;5052207;28;20221;-58
2023/07/24 00:40:27;;;;;;;8.73;6.72;;;18.50;99.90;;;;;;5052255;28;20575;-56
2023/07/24 00:42:53;;;;;;;8.38;6.55;;;18.50;99.90;;;;;;5052486;28;20232;-56
2023/07/24 00:45:22;;;;;;;12.98;6.85;;;18.50;99.90;;;;;;5052263;28;20296;-56
2023/07/24 00:47:50;;;;;;;9.13;6.50;;;18.50;99.90;;;;;;5051681;28;20236;-57
2023/07/24 00:50:17;;;;;;;7.78;6.25;;;18.60;99.90;;;;;;5052025;28;20221;-56
2023/07/24 00:52:43;;;;;;;10.70;6.50;;;18.50;99.90;;;;;;5051945;28;20581;-56
2023/07/24 00:55:13;;;;;;;11.55;6.82;;;18.40;99.90;;;;;;5052032;28;20588;-57
2023/07/24 00:57:40;;;;;;;8.88;5.93;;;18.30;99.90;;;;;;5051669;28;20440;-58
2023/07/24 01:00:08;;;;;;;8.50;6.25;;;18.10;99.90;;;;;;5052123;28;20208;-56
2023/07/24 01:02:35;;;;;;;6.72;5.57;;;18.00;99.90;;;;;;5052063;28;20210;-58
2023/07/24 01:05:04;;;;;;;9.95;6.18;;;17.90;99.90;;;;;;5052301;28;20213;-59
2023/07/24 01:07:31;;;;;;;8.65;6.03;;;17.90;99.90;;;;;;5051346;28;20225;-57
2023/07/24 01:09:58;;;;;;;8.40;6.63;;;17.80;99.90;;;;;;5051674;28;20667;-57
2023/07/24 01:12:32;;;;;;;6.15;5.50;;;17.90;99.90;;;;;;5051695;28;20213;-58
2023/07/24 01:15:04;;;;;;;7.00;5.82;;;17.80;99.90;;;;;;5051765;28;20300;-57
2023/07/24 01:17:34;;;;;;;7.97;5.97;;;17.80;99.90;;;;;;5051247;28;20705;-58
2023/07/24 01:20:04;;;;;;;10.15;6.53;;;17.90;99.90;;;;;;5051677;28;20584;-59
2023/07/24 01:22:40;;;;;;;8.55;6.18;;;18.00;99.90;;;;;;5051698;28;20216;-57
2023/07/24 01:25:15;;;;;;;7.80;6.07;;;18.10;99.90;;;;;;5051565;28;20232;-56
2023/07/24 01:27:45;;;;;;;6.40;5.40;;;18.20;99.90;;;;;;5050985;28;20716;-57
2023/07/24 01:30:12;;;;;;;7.65;6.00;;;18.20;99.90;;;;;;5051542;28;20251;-59
2023/07/24 01:32:39;;;;;;;7.03;5.30;;;18.10;99.90;;;;;;5051807;28;20442;-57
2023/07/24 01:35:07;;;;;;;7.93;6.15;;;18.00;99.90;;;;;;5051630;28;20213;-57
2023/07/24 01:37:37;;;;;;;8.02;5.72;;;18.00;99.90;;;;;;5051299;28;20233;-56
2023/07/24 01:40:04;;;;;;;7.18;5.47;;;17.90;99.90;;;;;;5051696;28;20229;-57
2023/07/24 01:42:32;;;;;;;6.70;5.68;;;17.90;99.90;;;;;;5051254;28;20221;-58
2023/07/24 01:45:00;;;;;;;9.20;6.05;;;17.80;99.90;;;;;;5051144;28;20205;-56
2023/07/24 01:47:27;;;;;;;7.25;5.78;;;17.70;99.90;;;;;;5051024;28;20232;-57
2023/07/24 01:49:53;;;;;;;7.85;5.60;;;17.80;99.90;;;;;;5051256;28;20228;-57
2023/07/24 01:52:20;;;;;;;9.85;5.78;;;17.60;99.90;;;;;;5051118;28;20582;-56
2023/07/24 01:54:47;;;;;;;8.77;6.10;;;17.50;99.90;;;;;;5051185;28;20217;-57
2023/07/24 01:57:13;;;;;;;7.53;5.57;;;17.50;99.90;;;;;;5050813;28;20228;-57
2023/07/24 01:59:40;;;;;;;6.85;5.75;;;17.40;99.90;;;;;;5050956;28;20213;-58
2023/07/24 02:02:08;;;;;;;6.20;5.20;;;17.50;99.90;;;;;;5051601;28;20665;-57
2023/07/24 02:04:35;;;;;;;6.38;5.50;;;17.50;99.90;;;;;;5051802;28;20592;-56
2023/07/24 02:07:02;;;;;;;6.97;5.80;;;17.50;99.90;;;;;;5050873;28;20225;-58
2023/07/24 02:09:28;;;;;;;7.40;5.85;;;17.60;99.90;;;;;;5051017;28;20267;-57
2023/07/24 02:11:55;;;;;;;7.97;5.65;;;17.50;99.90;;;;;;5051138;28;20201;-57
2023/07/24 02:14:22;;;;;;;7.72;5.80;;;17.70;99.90;;;;;;5051377;28;20206;-57
2023/07/24 02:16:48;;;;;;;7.35;5.50;;;17.70;99.90;;;;;;5050736;28;20236;-58
2023/07/24 02:19:16;;;;;;;7.38;5.57;;;17.70;99.90;;;;;;5051165;28;20212;-58
2023/07/24 02:21:43;;;;;;;8.45;5.68;;;17.70;99.90;;;;;;5050994;28;20205;-57
2023/07/24 02:24:10;;;;;;;6.72;5.47;;;17.70;99.90;;;;;;5053763;28;20671;-57
2023/07/24 02:26:36;;;;;;;8.23;5.90;;;17.70;99.90;;;;;;5054580;28;20755;-59
2023/07/24 02:29:03;;;;;;;6.65;5.60;;;17.70;99.90;;;;;;5055060;28;20279;-57
2023/07/24 02:31:30;;;;;;;6.32;5.30;;;17.60;99.90;;;;;;5054903;28;20237;-56
2023/07/24 02:33:56;;;;;;;7.88;5.88;;;17.50;99.90;;;;;;5054829;28;20201;-58
2023/07/24 02:36:24;;;;;;;8.45;5.28;;;17.60;99.90;;;;;;5054205;28;20704;-59
2023/07/24 02:38:51;;;;;;;6.70;5.45;;;17.60;99.90;;;;;;5054536;28;20209;-56
2023/07/24 02:41:18;;;;;;;7.28;5.95;;;17.70;99.90;;;;;;5054832;28;20241;-57
2023/07/24 02:43:45;;;;;;;7.25;5.53;;;17.70;99.90;;;;;;5054572;28;20214;-56
2023/07/24 02:46:12;;;;;;;7.97;5.18;;;17.70;99.90;;;;;;5054048;28;20229;-56
2023/07/24 02:48:38;;;;;;;7.15;5.80;;;17.70;99.90;;;;;;5054586;28;20656;-56
2023/07/24 02:51:05;;;;;;;8.23;5.50;;;17.80;99.90;;;;;;5054476;28;20632;-57
2023/07/24 02:53:33;;;;;;;8.43;5.93;;;17.80;99.90;;;;;;5054473;28;20631;-56
2023/07/24 02:56:02;;;;;;;7.78;6.13;;;17.70;99.90;;;;;;5053962;28;20711;-56
2023/07/24 02:58:28;;;;;;;7.93;5.80;;;17.70;99.90;;;;;;5054780;28;20206;-56
2023/07/24 03:00:56;;;;;;;7.65;6.07;;;17.70;99.90;;;;;;5054642;28;20198;-58
2023/07/24 03:03:23;;;;;;;8.20;5.72;;;17.80;99.90;;;;;;5054431;28;20205;-57
2023/07/24 03:05:50;;;;;;;7.90;6.07;;;17.90;99.90;;;;;;5054193;28;20229;-57
2023/07/24 03:08:16;;;;;;;7.22;5.85;;;18.00;99.90;;;;;;5054583;28;20201;-56
2023/07/24 03:10:44;;;;;;;7.32;5.63;;;18.10;99.90;;;;;;5054047;28;20743;-57
2023/07/24 03:13:10;;;;;;;7.65;5.63;;;18.10;99.90;;;;;;5054084;28;20213;-56
2023/07/24 03:15:37;;;;;;;7.65;5.70;;;18.00;99.90;;;;;;5053978;28;20201;-57
2023/07/24 03:18:03;;;;;;;6.78;5.90;;;18.00;99.90;;;;;;5053691;28;20212;-57
2023/07/24 03:20:30;;;;;;;8.40;5.95;;;17.90;99.90;;;;;;5053877;28;20205;-56
2023/07/24 03:22:57;;;;;;;8.25;5.72;;;17.90;99.90;;;;;;5053555;28;20673;-56
2023/07/24 03:25:24;;;;;;;9.40;6.18;;;18.00;99.90;;;;;;5053592;28;20213;-57
2023/07/24 03:27:52;;;;;;;6.93;5.30;;;18.10;99.90;;;;;;5053418;28;20237;-56
2023/07/24 03:30:19;;;;;;;9.52;6.05;;;18.10;99.90;;;;;;5053678;28;20233;-58
2023/07/24 03:32:45;;;;;;;7.05;5.53;;;18.10;99.90;;;;;;5053662;28;20217;-57
2023/07/24 03:35:12;;;;;;;7.70;5.93;;;18.00;99.90;;;;;;5052232;28;20209;-58
2023/07/24 03:37:38;;;;;;;8.07;5.47;;;17.90;99.90;;;;;;5053096;28;20226;-56
2023/07/24 03:40:06;;;;;;;9.05;6.45;;;17.80;99.90;;;;;;5053558;28;20205;-57
2023/07/24 03:42:33;;;;;;;8.05;6.68;;;17.80;99.90;;;;;;5053350;28;20677;-57
2023/07/24 03:45:01;;;;;;;9.00;5.68;;;17.90;99.90;;;;;;5053480;28;20206;-57
2023/07/24 03:47:28;;;;;;;10.00;6.68;;;18.00;99.90;;;;;;5053035;28;20221;-57
2023/07/24 03:49:55;;;;;;;7.50;5.43;;;17.90;99.90;;;;;;5053102;28;20237;-58
2023/07/24 03:52:21;;;;;;;10.88;5.97;;;18.00;99.90;;;;;;5053005;28;20355;-57
2023/07/24 03:54:48;;;;;;;8.50;5.72;;;18.00;99.90;;;;;;5053211;28;20206;-57
2023/07/24 03:57:15;;;;;;;7.43;5.63;;;18.10;99.90;;;;;;5052821;28;20249;-57
2023/07/24 03:59:41;;;;;;;8.95;5.85;;;18.20;99.90;;;;;;5052981;28;20201;-57
2023/07/24 04:02:10;;;;;;;8.15;6.47;;;18.20;99.90;;;;;;5052980;28;20205;-57
2023/07/24 04:04:36;;;;;;;8.93;6.57;;;18.40;99.90;;;;;;5052925;28;20311;-58
2023/07/24 04:07:03;;;;;;;10.18;6.15;;;18.60;99.90;;;;;;5052554;28;20230;-57
2023/07/24 04:09:30;;;;;;;7.40;5.82;;;18.70;99.90;;;;;;5052733;28;20668;-58
2023/07/24 04:11:57;;;;;;;7.32;5.72;;;18.90;99.90;;;;;;5053181;28;20248;-58
2023/07/24 04:14:23;;;;;;;8.45;5.88;;;19.10;99.90;;;;;;5053244;28;20212;-58
2023/07/24 04:16:50;;;;;;;8.45;6.47;;;19.20;99.90;;;;;;5052409;28;20275;-57
2023/07/24 04:19:18;;;;;;;9.40;6.05;;;19.30;99.90;;;;;;5052514;28;20201;-59
2023/07/24 04:21:45;;;;;;;7.45;5.45;;;19.40;99.90;;;;;;5052765;28;20206;-59
2023/07/24 04:24:11;;;;;;;7.95;5.78;;;19.40;99.90;;;;;;5052762;28;20214;-58
2023/07/24 04:26:39;;;;;;;6.45;5.43;;;19.40;99.90;;;;;;5052201;28;20237;-57
2023/07/24 04:29:06;;;;;;;7.50;5.60;;;19.50;99.90;;;;;;5052419;28;20259;-58
2023/07/24 04:31:33;;;;;;;7.22;5.78;;;19.60;99.90;;;;;;5052538;28;20233;-57
2023/07/24 04:33:59;;;;;;;8.05;6.22;;;19.70;99.90;;;;;;5052208;28;20612;-57
2023/07/24 04:36:27;;;;;;;9.23;6.80;;;19.80;99.90;;;;;;5052304;28;20221;-58
2023/07/24 04:38:54;;;;;;;10.50;7.10;;;19.90;99.90;;;;;;5052187;28;20731;-58
2023/07/24 04:41:21;;;;;;;8.85;6.28;;;20.10;99.90;;;;;;5052213;28;20213;-58
2023/07/24 04:43:47;;;;;;;8.52;5.25;;;20.20;99.90;;;;;;5052053;28;20695;-59
2023/07/24 04:46:14;;;;;;;6.97;5.55;;;20.30;99.90;;;;;;5051315;28;20598;-57
2023/07/24 04:48:41;;;;;;;6.38;5.43;;;20.30;99.90;;;;;;5052944;28;20328;-55
2023/07/24 04:51:07;;;;;;;8.90;5.55;;;20.40;99.90;;;;;;5052134;28;20229;-56
2023/07/24 04:53:35;;;;;;;9.95;6.45;;;20.60;99.90;;;;;;5052041;28;20216;-58
2023/07/24 04:56:02;;;;;;;9.43;6.22;;;20.70;99.90;;;;;;5051780;28;20229;-56
2023/07/24 04:58:29;;;;;;;9.20;6.35;;;20.90;99.90;;;;;;5051953;28;20201;-57
2023/07/24 05:00:55;;;;;;;6.95;5.70;;;21.00;99.90;;;;;;5051832;28;20202;-57
2023/07/24 05:03:22;;;;;;;7.63;5.85;;;21.10;99.90;;;;;;5052044;28;20262;-58
2023/07/24 05:05:54;;;;;;;7.22;5.82;;;21.20;99.90;;;;;;5051449;28;20229;-57
2023/07/24 05:08:21;;;;;;;8.20;5.80;;;21.20;99.90;;;;;;5051829;28;20221;-57
2023/07/24 05:10:55;;;;;;;9.55;6.30;;;21.20;99.90;;;;;;5051584;28;20236;-57
2023/07/24 05:13:21;;;;;;;9.82;7.05;;;21.10;99.90;;;;;;5051545;28;20249;-58
2023/07/24 05:15:48;;;;;;;7.65;6.00;;;21.20;99.90;;;;;;5051280;28;20569;-58
2023/07/24 05:18:15;;;;;;;7.40;5.55;;;21.30;99.90;;;;;;5051904;28;20209;-57
2023/07/24 05:20:45;;;;;;;7.20;5.75;;;21.30;99.90;;;;;;5051709;28;20647;-57
2023/07/24 05:23:12;;;;;;;7.53;6.03;;;21.20;99.90;;;;;;5051248;28;20642;-57
2023/07/24 05:25:38;;;;;;;9.35;5.88;;;21.40;99.90;;;;;;5051131;28;20213;-56
2023/07/24 05:28:06;;;;;;;6.75;5.68;;;21.60;99.90;;;;;;5051242;28;20216;-58
2023/07/24 05:30:33;;;;;;;9.05;6.28;;;22.10;99.90;;;;;;5051398;28;20206;-56
2023/07/24 05:33:00;;;;;;;7.53;5.90;;;22.50;99.90;;;;;;5051172;28;20227;-57
2023/07/24 05:35:27;;;;;;;6.93;5.50;;;22.70;99.90;;;;;;5051226;28;20271;-58
2023/07/24 05:37:53;;;;;;;6.72;5.28;;;22.90;99.90;;;;;;5051024;28;20235;-57
2023/07/24 05:40:20;;;;;;;7.72;6.00;;;23.00;99.90;;;;;;5051186;28;20209;-58
2023/07/24 05:42:47;;;;;;;8.00;5.88;;;23.00;99.90;;;;;;5051378;28;20209;-58
2023/07/24 05:45:15;;;;;;;10.05;6.25;;;22.90;99.90;;;;;;5051438;28;20208;-58
2023/07/24 05:47:42;;;;;;;9.82;6.45;;;22.80;99.90;;;;;;5050762;28;20225;-58
2023/07/24 05:50:09;;;;;;;8.40;6.40;;;22.80;99.90;;;;;;5050997;28;20669;-58
2023/07/24 05:52:36;;;;;;;7.20;5.70;;;22.80;99.90;;;;;;5050974;28;20229;-59
2023/07/24 05:55:03;;;;;;;8.55;5.68;;;22.80;99.90;;;;;;5050894;28;20233;-58
2023/07/24 05:57:30;;;;;;;10.50;6.20;;;22.90;99.90;;;;;;5050962;28;20229;-57
2023/07/24 05:59:57;;;;;;;10.20;8.05;;;22.90;99.90;;;;;;5055476;28;20301;-56
2023/07/24 06:02:25;;;;;;;7.70;5.88;;;22.90;99.90;;;;;;5055253;28;20201;-55
2023/07/24 06:04:51;;;;;;;11.80;6.93;;;22.90;99.90;;;;;;5055073;28;20206;-58
2023/07/24 06:07:18;;;;;;;8.52;6.45;;;22.80;99.90;;;;;;5054870;28;20230;-57
2023/07/24 06:09:45;;;;;;;8.43;6.18;;;22.80;99.90;;;;;;5054999;28;20213;-58
2023/07/24 06:12:11;;;;;;;13.15;6.30;;;22.80;99.90;;;;;;5055211;28;20236;-58
2023/07/24 06:14:38;;;;;;;11.50;7.57;;;22.70;99.90;;;;;;5054764;28;20611;-58
2023/07/24 06:17:05;;;;;;;9.65;6.18;;;22.70;99.90;;;;;;5054494;28;20247;-56
2023/07/24 06:19:33;;;;;;;9.15;6.47;;;22.70;99.90;;;;;;5054723;28;20596;-58
2023/07/24 06:22:00;;;;;;;10.60;5.85;;;22.70;99.90;;;;;;5054908;28;20202;-57
2023/07/24 06:24:26;;;;;;;11.27;6.43;;;22.70;99.90;;;;;;5054603;28;20734;-57
2023/07/24 06:26:53;;;;;;;10.13;6.68;;;22.60;99.90;;;;;;5054810;28;20834;-60
2023/07/24 06:29:20;;;;;;;9.52;6.68;;;22.40;99.90;;;;;;5054848;28;20621;-60
2023/07/24 06:31:46;;;;;;;7.90;5.95;;;22.30;99.90;;;;;;5054608;28;20221;-60
2023/07/24 06:34:13;;;;;;;8.68;6.55;;;22.30;99.90;;;;;;5054680;28;20271;-60
2023/07/24 06:36:41;;;;;;;7.18;5.82;;;22.40;99.90;;;;;;5054066;28;20233;-60
2023/07/24 06:39:08;;;;;;;9.27;7.25;;;22.40;99.90;;;;;;5055217;28;20208;-60
2023/07/24 06:41:34;;;;;;;12.07;6.40;;;22.50;99.90;;;;;;5054852;28;20582;-60
2023/07/24 06:44:01;;;;;;;14.98;6.95;;;22.60;99.90;;;;;;5054658;28;20275;-60
2023/07/24 06:46:27;;;;;;;8.15;6.20;;;22.60;99.90;;;;;;5054220;28;20221;-60
2023/07/24 06:48:54;;;;;;;9.02;5.90;;;22.70;99.90;;;;;;5054452;28;20213;-61
2023/07/24 06:51:21;;;;;;;8.32;6.10;;;22.90;99.90;;;;;;5054116;28;20267;-61
2023/07/24 06:53:49;;;;;;;8.25;6.05;;;23.00;99.90;;;;;;5054352;28;20202;-60
2023/07/24 06:56:15;;;;;;;8.55;6.55;;;23.10;99.90;;;;;;5054019;28;20668;-60
2023/07/24 06:58:42;;;;;;;8.65;6.55;;;23.30;99.90;;;;;;5054337;28;20206;-61
2023/07/24 07:01:09;;;;;;;8.65;6.63;;;23.30;99.90;;;;;;5054138;28;20205;-59
2023/07/24 07:03:36;;;;;;;8.75;6.45;;;23.40;99.90;;;;;;5053951;28;20205;-57
2023/07/24 07:06:03;;;;;;;10.50;6.32;;;23.60;99.90;;;;;;5053695;28;20230;-56
2023/07/24 07:08:30;;;;;;;8.30;6.20;;;23.70;99.90;;;;;;5053528;28;20549;-57
2023/07/24 07:10:59;;;;;;;7.32;6.05;;;23.60;99.90;;;;;;5054035;28;20201;-57
2023/07/24 07:13:26;;;;;;;9.07;6.28;;;23.60;99.90;;;;;;5053697;28;20732;-57
2023/07/24 07:15:53;;;;;;;9.40;7.00;;;23.70;99.90;;;;;;5053272;28;20236;-55
2023/07/24 07:18:19;;;;;;;9.02;6.95;;;23.70;99.90;;;;;;5053458;28;20201;-58
2023/07/24 07:20:47;;;;;;;8.77;6.65;;;23.80;99.90;;;;;;5053497;28;20206;-55
2023/07/24 07:23:14;;;;;;;9.27;6.38;;;23.80;99.90;;;;;;5053647;28;20241;-57
2023/07/24 07:25:40;;;;;;;8.63;6.70;;;23.80;99.90;;;;;;5053274;28;20213;-55
2023/07/24 07:28:08;;;;;;;9.68;7.13;;;23.90;99.90;;;;;;5053499;28;20206;-56
2023/07/24 07:30:35;;;;;;;9.35;6.72;;;23.90;99.90;;;;;;5053382;28;20217;-55
2023/07/24 07:33:02;;;;;;;9.98;5.97;;;24.00;99.90;;;;;;5053217;28;20232;-56
2023/07/24 07:35:29;;;;;;;8.25;5.82;;;24.20;99.90;;;;;;5053215;28;20614;-55
2023/07/24 07:37:56;;;;;;;9.90;6.30;;;24.40;99.90;;;;;;5053258;28;20639;-56
2023/07/24 07:40:23;;;;;;;8.55;6.20;;;24.40;99.90;;;;;;5053525;28;20209;-56
2023/07/24 07:42:49;;;;;;;8.43;6.35;;;24.40;99.90;;;;;;5053301;28;20224;-57
2023/07/24 07:45:18;;;;;;;10.55;6.50;;;24.50;99.90;;;;;;5053264;28;20210;-56
2023/07/24 07:47:44;;;;;;;9.52;6.35;;;24.60;99.90;;;;;;5053251;28;20290;-57
2023/07/24 07:50:11;;;;;;;12.55;6.75;;;24.70;99.90;;;;;;5053419;28;20209;-56
2023/07/24 07:52:38;;;;;;;10.38;6.32;;;24.90;99.90;;;;;;5053162;28;20731;-56
2023/07/24 07:55:06;;;;;;;10.43;6.22;;;24.90;99.90;;;;;;5053353;28;20217;-57
2023/07/24 07:57:33;;;;;;;11.40;7.03;;;25.00;99.90;;;;;;5052833;28;20229;-57
2023/07/24 07:59:59;;;;;;;11.02;6.50;;;25.20;99.90;;;;;;5053096;28;20629;-57
2023/07/24 08:02:27;;;;;;;10.50;6.40;;;25.30;99.90;;;;;;5052880;28;20727;-57
2023/07/24 08:04:54;;;;;;;8.70;6.78;;;25.20;99.90;;;;;;5053145;28;20205;-56
2023/07/24 08:07:20;;;;;;;12.57;7.05;;;25.10;99.90;;;;;;5052632;28;20229;-57
2023/07/24 08:09:47;;;;;;;8.10;6.28;;;25.20;99.90;;;;;;5052909;28;20201;-56
2023/07/24 08:12:14;;;;;;;8.63;6.05;;;25.40;99.90;;;;;;5052607;28;20221;-56
2023/07/24 08:14:41;;;;;;;9.20;6.22;;;25.60;99.90;;;;;;5052634;28;20205;-56
2023/07/24 08:17:07;;;;;;;10.35;6.28;;;25.70;99.90;;;;;;5052500;28;20316;-57
2023/07/24 08:19:35;;;;;;;8.55;5.75;;;25.80;99.90;;;;;;5052601;28;20209;-56
2023/07/24 08:22:02;;;;;;;8.23;6.43;;;25.70;99.90;;;;;;5052171;28;20202;-56
2023/07/24 08:24:29;;;;;;;8.80;6.53;;;25.50;99.90;;;;;;5052607;28;20205;-56
2023/07/24 08:26:55;;;;;;;7.68;6.10;;;25.40;99.90;;;;;;5052108;28;20236;-56
2023/07/24 08:29:22;;;;;;;9.63;6.53;;;25.30;99.90;;;;;;5052476;28;20213;-56
2023/07/24 08:31:49;;;;;;;10.93;6.55;;;25.20;99.90;;;;;;5052559;28;20217;-57
2023/07/24 08:34:16;;;;;;;13.20;6.90;;;25.20;99.90;;;;;;5052732;28;20205;-56
2023/07/24 08:36:44;;;;;;;9.93;6.90;;;25.10;99.90;;;;;;5052145;28;20251;-57
2023/07/24 08:39:10;;;;;;;11.27;7.25;;;25.00;99.90;;;;;;5048358;28;20443;-59
2023/07/24 08:41:38;;;;;;;10.15;6.60;;;24.90;99.90;;;;;;5051980;28;20319;-59
2023/07/24 08:44:06;;;;;;;12.30;6.90;;;24.70;99.90;;;;;;5052494;28;20214;-65
2023/07/24 08:46:38;;;;;;;9.38;6.60;;;24.70;99.90;;;;;;5051716;28;20225;-60
2023/07/24 08:49:05;;;;;;;12.93;7.47;;;24.60;99.90;;;;;;5052207;28;20213;-65
2023/07/24 08:51:33;;;;;;;13.73;7.05;;;24.50;99.90;;;;;;5052386;28;20205;-65
2023/07/24 08:54:03;;;;;;;8.65;6.70;;;24.50;99.90;;;;;;5051942;28;20592;-61
2023/07/24 08:56:30;;;;;;;12.65;7.95;;;24.50;99.90;;;;;;5051757;28;20240;-61
2023/07/24 08:58:57;;;;;;;11.75;7.22;;;24.50;99.90;;;;;;5051433;28;20224;-63
2023/07/24 09:01:24;;;;;;;8.23;6.65;;;24.60;99.90;;;;;;5052105;28;20296;-61
2023/07/24 09:03:51;;;;;;;8.88;6.80;;;24.70;99.90;;;;;;5051108;28;20642;-64
2023/07/24 09:06:17;;;;;;;10.73;6.47;;;24.70;99.90;;;;;;5051497;28;20222;-63
2023/07/24 09:08:45;;;;;;;8.38;7.13;;;24.60;99.90;;;;;;5052011;28;20205;-60
2023/07/24 09:11:15;;;;;;;11.30;7.30;;;24.50;99.90;;;;;;5051327;28;20205;-62
2023/07/24 09:13:43;;;;;;;11.98;7.63;;;24.60;99.90;;;;;;5051665;28;20241;-58
2023/07/24 09:16:21;;;;;;;9.40;7.13;;;24.80;99.90;;;;;;5051359;28;20254;-60
2023/07/24 09:18:47;;;;;;;11.10;6.75;;;25.20;99.90;;;;;;5051519;28;20242;-62
2023/07/24 09:21:14;;;;;;;10.85;6.78;;;25.60;99.90;;;;;;5051383;28;20209;-62
2023/07/24 09:23:43;;;;;;;10.55;6.57;;;26.00;99.90;;;;;;5051045;28;20610;-62
2023/07/24 09:26:10;;;;;;;10.18;6.90;;;26.30;99.90;;;;;;5051041;28;20624;-62
2023/07/24 09:28:38;;;;;;;10.60;6.57;;;26.60;99.90;;;;;;5051490;28;20225;-63
2023/07/24 09:31:05;;;;;;;8.35;6.53;;;27.10;99.90;;;;;;5051461;28;20689;-62
2023/07/24 09:33:37;;;;;;;10.15;6.68;;;27.50;99.90;;;;;;5051036;28;20752;-67
2023/07/24 09:36:05;;;;;;;8.65;6.53;;;27.70;99.90;;;;;;5050597;28;20229;-63
2023/07/24 09:38:31;;;;;;;10.05;6.28;;;28.00;99.90;;;;;;5051510;28;20296;-62
2023/07/24 09:40:58;;;;;;;8.00;5.75;;;28.20;99.90;;;;;;5051273;28;20228;-61
2023/07/24 09:43:27;;;;;;;7.78;5.57;;;28.30;99.90;;;;;;5050899;28;20673;-61
2023/07/24 09:45:55;;;;;;;7.13;5.30;;;28.30;99.90;;;;;;5050845;28;20551;-61
2023/07/24 09:48:23;;;;;;;7.75;5.25;;;28.50;99.90;;;;;;5050933;28;20206;-62
2023/07/24 09:50:53;;;;;;;8.88;5.78;;;28.70;99.90;;;;;;5051379;28;20217;-61
2023/07/24 09:53:22;;;;;;;8.57;5.38;;;28.80;99.90;;;;;;5051210;28;20256;-61
2023/07/24 09:55:56;;;;;;;6.60;5.30;;;28.90;99.90;;;;;;5050691;28;20221;-61
2023/07/24 09:58:23;;;;;;;7.88;4.95;;;29.00;99.90;;;;;;5051103;28;20205;-61
2023/07/24 10:00:51;;;;;;;8.57;5.18;;;28.90;99.90;;;;;;5050493;28;20208;-59
2023/07/24 10:03:20;;;;;;;6.50;5.18;;;28.60;99.90;;;;;;5051099;28;20228;-59
2023/07/24 10:05:48;;;;;;;6.38;5.38;;;28.40;99.90;;;;;;5050939;28;20205;-62
2023/07/24 10:08:16;;;;;;;10.32;5.55;;;28.20;99.90;;;;;;5051136;28;20205;-61
2023/07/24 10:10:42;;;;;;;8.60;5.82;;;27.90;99.90;;;;;;5051039;28;20688;-61
2023/07/24 10:13:13;;;;;;;9.95;6.55;;;27.70;99.90;;;;;;5050348;28;20217;-58
2023/07/24 10:15:40;;;;;;;9.90;6.03;;;27.50;99.90;;;;;;5050661;28;20677;-61
2023/07/24 10:18:08;;;;;;;8.23;5.45;;;27.30;99.90;;;;;;5050744;28;20212;-59
2023/07/24 10:20:38;;;;;;;8.70;5.40;;;27.10;99.90;;;;;;5050974;28;20255;-60
2023/07/24 10:23:06;;;;;;;6.97;5.75;;;26.80;99.90;;;;;;5050781;28;20202;-60
2023/07/24 10:25:33;;;;;;;6.68;5.97;;;26.70;99.90;;;;;;5050283;28;20211;-60
2023/07/24 10:28:07;;;;;;;10.48;5.97;;;26.40;99.90;;;;;;5049244;28;20670;-62
2023/07/24 10:30:34;;;;;;;9.45;6.30;;;26.10;99.90;;;;;;5049976;28;20217;-62
2023/07/24 10:33:09;;;;;;;6.65;5.30;;;25.90;99.90;;;;;;5049562;28;20256;-61
2023/07/24 10:35:45;;;;;;;8.52;5.72;;;25.70;99.90;;;;;;5050031;28;20668;-60
2023/07/24 10:38:13;;;;;;;7.45;5.93;;;25.60;99.90;;;;;;5045153;28;20297;-61
2023/07/24 10:40:41;;;;;;;7.30;5.85;;;25.40;99.90;;;;;;5047673;28;20205;-58
2023/07/24 10:43:09;;;;;;;8.30;5.25;;;25.30;99.90;;;;;;5049573;28;20225;-60
2023/07/24 10:45:47;;;;;;;9.05;5.93;;;25.10;99.90;;;;;;5052661;28;20312;-65
2023/07/24 10:48:13;;;;;;;8.02;5.72;;;24.90;99.90;;;;;;5053418;28;20208;-60
2023/07/24 10:50:41;;;;;;;7.40;5.32;;;24.80;99.90;;;;;;5052678;28;20202;-57
2023/07/24 10:53:09;;;;;;;7.82;5.70;;;24.80;99.90;;;;;;5050783;28;20233;-59
2023/07/24 10:55:36;;;;;;;10.32;5.90;;;24.70;99.90;;;;;;5052960;28;20217;-58
2023/07/24 10:58:03;;;;;;;9.48;5.60;;;24.60;99.90;;;;;;5052872;28;20209;-58
2023/07/24 11:00:30;;;;;;;8.38;5.80;;;24.50;99.90;;;;;;5052918;28;20202;-60
2023/07/24 11:02:56;;;;;;;9.77;5.68;;;24.40;99.90;;;;;;5052349;28;20205;-60
2023/07/24 11:05:24;;;;;;;6.55;5.28;;;24.40;99.90;;;;;;5052529;28;20213;-61
2023/07/24 11:07:50;;;;;;;10.48;6.35;;;24.30;99.90;;;;;;5052979;28;20251;-60
2023/07/24 11:10:19;;;;;;;9.95;5.70;;;24.20;99.90;;;;;;5052883;28;20213;-60
2023/07/24 11:12:46;;;;;;;8.27;5.60;;;24.10;99.90;;;;;;5052724;28;20229;-60
2023/07/24 11:15:14;;;;;;;7.63;5.32;;;23.90;99.90;;;;;;5052707;28;20206;-59
2023/07/24 11:17:42;;;;;;;8.65;5.60;;;23.70;99.90;;;;;;5052772;28;20336;-59
2023/07/24 11:20:11;;;;;;;7.85;5.47;;;23.60;99.90;;;;;;5052795;28;20205;-60
2023/07/24 11:22:40;;;;;;;9.80;5.63;;;23.40;99.90;;;;;;5053230;28;20251;-59
2023/07/24 11:25:07;;;;;;;6.22;4.95;;;23.20;99.90;;;;;;5052679;28;20237;-60
2023/07/24 11:27:39;;;;;;;7.40;5.50;;;23.10;99.90;;;;;;5015336;28;1104017;-63
2023/07/24 11:30:07;;;;;;;8.45;5.13;;;23.00;99.90;;;;;;5054090;28;20225;-60
2023/07/24 11:32:34;;;;;;;7.90;5.28;;;23.00;99.90;;;;;;5054018;28;20213;-61
2023/07/24 11:35:01;;;;;;;6.15;5.00;;;23.00;99.90;;;;;;5054378;28;20205;-60
2023/07/24 11:37:28;;;;;;;6.15;4.97;;;23.00;99.90;;;;;;5053753;28;20312;-60
2023/07/24 11:39:59;;;;;;;6.35;4.95;;;23.10;99.90;;;;;;5053875;28;20288;-60
2023/07/24 11:42:27;;;;;;;6.47;4.75;;;23.10;99.90;;;;;;5053819;28;20206;-64
2023/07/24 11:44:55;;;;;;;10.05;5.82;;;23.20;99.90;;;;;;5053565;28;20209;-61
2023/07/24 11:47:22;;;;;;;7.43;4.82;;;23.40;99.90;;;;;;5053686;28;20230;-61
2023/07/24 11:49:59;;;;;;;6.97;4.78;;;23.60;99.90;;;;;;5053817;28;20228;-61
2023/07/24 11:52:26;;;;;;;6.80;4.78;;;23.80;99.90;;;;;;5053719;28;20210;-59
2023/07/24 11:55:00;;;;;;;6.82;4.88;;;24.20;99.90;;;;;;5053347;28;20230;-60
2023/07/24 11:57:28;;;;;;;9.00;4.65;;;24.70;99.90;;;;;;5052718;28;20291;-60
2023/07/24 11:59:57;;;;;;;5.93;4.78;;;25.30;99.90;;;;;;5053780;28;20260;-62
2023/07/24 12:02:26;;;;;;;9.27;4.78;;;25.80;99.90;;;;;;5053592;28;20375;-56
2023/07/24 12:04:57;;;;;;;7.07;4.70;;;26.20;99.90;;;;;;5053148;28;20682;-59
2023/07/24 12:07:29;;;;;;;14.55;5.50;;;26.30;99.90;;;;;;5052992;28;20332;-58
2023/07/24 12:09:56;;;;;;;7.18;4.65;;;26.50;99.90;;;;;;5053349;28;20719;-58
2023/07/24 12:12:23;;;;;;;5.47;4.47;;;26.60;99.90;;;;;;5053315;28;20216;-59
2023/07/24 12:14:50;;;;;;;5.43;4.88;;;26.50;99.90;;;;;;5053705;28;20233;-57
2023/07/24 12:17:20;;;;;;;7.20;5.40;;;26.20;99.90;;;;;;5053232;28;20232;-57
2023/07/24 12:19:48;;;;;;;7.72;5.28;;;25.80;99.90;;;;;;5053648;28;20229;-57
2023/07/24 12:22:14;;;;;;;4.88;4.22;;;25.40;99.90;;;;;;5053400;28;20214;-57
2023/07/24 12:24:41;;;;;;;6.15;4.85;;;25.00;99.90;;;;;;5053459;28;20588;-58
2023/07/24 12:27:08;;;;;;;6.35;4.72;;;24.70;99.90;;;;;;5053143;28;20287;-56
2023/07/24 12:29:34;;;;;;;5.75;4.63;;;24.50;99.90;;;;;;5053220;28;20205;-56
2023/07/24 12:32:01;;;;;;;6.72;4.97;;;24.40;99.90;;;;;;5053135;28;20209;-57
2023/07/24 12:34:29;;;;;;;7.57;4.85;;;24.20;99.90;;;;;;5052930;28;20232;-57
2023/07/24 12:36:56;;;;;;;9.35;5.22;;;24.10;99.90;;;;;;5052385;28;20225;-56
2023/07/24 12:39:23;;;;;;;5.60;4.50;;;24.00;99.90;;;;;;5053114;28;20214;-55
2023/07/24 12:41:49;;;;;;;5.50;4.43;;;23.90;99.90;;;;;;5053705;28;20213;-57
2023/07/24 12:44:16;;;;;;;6.40;4.80;;;24.00;99.90;;;;;;5053012;28;20216;-56
2023/07/24 12:46:43;;;;;;;6.75;4.53;;;23.90;99.90;;;;;;5052178;28;20550;-55